Time;durP1;ratioP1;P1;durP2;ratioP2;P2;SDS_P1;SDS_P2;PMS_P1;PMS_P2;Temp;Humidity;BMP_temperature;BMP_pressure;BME280_temperature;BME280_humidity;BME280_pressure;Samples;Min_cycle;Max_cycle;Signal;HPM_P1;HPM_P2
2022/12/07 00:01:49;;;;;;;14.30;11.13;;;8.40;73.80;;;;;;5010085;28;20073;-51
2022/12/07 00:04:18;;;;;;;16.23;11.75;;;8.40;73.80;;;;;;5010674;28;20049;-51
2022/12/07 00:06:52;;;;;;;15.20;12.80;;;8.40;73.80;;;;;;5010667;28;20049;-50
2022/12/07 00:09:21;;;;;;;16.25;13.13;;;8.40;73.80;;;;;;5004879;28;20034;-51
2022/12/07 00:11:51;;;;;;;17.15;13.00;;;8.40;73.80;;;;;;4992978;28;20501;-49
2022/12/07 00:14:19;;;;;;;16.30;13.20;;;8.40;73.80;;;;;;5010192;28;20053;-51
2022/12/07 00:16:51;;;;;;;16.85;13.55;;;8.30;73.70;;;;;;5004649;28;20537;-51
2022/12/07 00:19:25;;;;;;;17.65;13.80;;;8.30;73.70;;;;;;5010387;28;20038;-51
2022/12/07 00:21:52;;;;;;;17.45;12.35;;;8.30;73.70;;;;;;4990932;28;20051;-51
2022/12/07 00:24:19;;;;;;;14.27;11.82;;;8.30;73.60;;;;;;5017643;28;20042;-51
2022/12/07 00:26:48;;;;;;;14.52;12.10;;;8.30;73.60;;;;;;5005013;28;20050;-51
2022/12/07 00:29:19;;;;;;;14.75;12.85;;;8.30;73.70;;;;;;4992865;28;20046;-51
2022/12/07 00:31:48;;;;;;;13.77;11.65;;;8.20;73.80;;;;;;5010427;28;20053;-52
2022/12/07 00:34:20;;;;;;;14.90;12.88;;;8.20;73.80;;;;;;5010424;28;20054;-53
2022/12/07 00:36:52;;;;;;;16.85;12.80;;;8.20;73.90;;;;;;5006225;28;20045;-51
2022/12/07 00:39:24;;;;;;;14.30;12.82;;;8.20;74.00;;;;;;5009994;28;20092;-51
2022/12/07 00:41:52;;;;;;;18.75;13.90;;;8.20;74.20;;;;;;5002404;28;20046;-52
2022/12/07 00:44:19;;;;;;;17.67;12.98;;;8.20;74.30;;;;;;5013491;28;20056;-52
2022/12/07 00:46:49;;;;;;;17.50;12.98;;;8.20;74.30;;;;;;5007803;28;20042;-50
2022/12/07 00:49:15;;;;;;;16.10;12.75;;;8.20;74.40;;;;;;5013954;28;20042;-52
2022/12/07 00:51:42;;;;;;;15.82;13.05;;;8.20;74.40;;;;;;5013628;28;20585;-52
2022/12/07 00:54:13;;;;;;;16.08;12.35;;;8.30;74.40;;;;;;5013628;28;20826;-53
2022/12/07 00:56:44;;;;;;;15.75;12.73;;;8.30;74.40;;;;;;5010306;28;20041;-53
2022/12/07 00:59:14;;;;;;;16.02;12.45;;;8.30;74.40;;;;;;5013743;28;20465;-52
2022/12/07 01:01:41;;;;;;;17.90;13.25;;;8.30;74.30;;;;;;5013707;28;20042;-52
2022/12/07 01:04:09;;;;;;;17.10;13.43;;;8.40;74.40;;;;;;5004147;28;20058;-53
2022/12/07 01:06:38;;;;;;;15.65;13.43;;;8.40;74.40;;;;;;5012495;28;20048;-52
2022/12/07 01:09:07;;;;;;;17.98;14.25;;;8.40;74.30;;;;;;5013584;28;20046;-52
2022/12/07 01:11:36;;;;;;;18.55;14.55;;;8.40;74.40;;;;;;5013303;28;20053;-52
2022/12/07 01:14:05;;;;;;;18.73;15.30;;;8.40;74.30;;;;;;5007799;28;20033;-50
2022/12/07 01:16:32;;;;;;;17.30;14.10;;;8.40;74.30;;;;;;5012959;28;20072;-54
2022/12/07 01:19:00;;;;;;;19.42;15.13;;;8.40;74.30;;;;;;5012863;28;20502;-51
2022/12/07 01:21:29;;;;;;;17.55;14.75;;;8.40;74.40;;;;;;5007422;28;20038;-51
2022/12/07 01:23:59;;;;;;;18.58;14.80;;;8.50;74.40;;;;;;5007895;28;20069;-51
2022/12/07 01:26:32;;;;;;;17.20;14.30;;;8.50;74.30;;;;;;5012900;28;20030;-53
2022/12/07 01:29:00;;;;;;;18.17;14.52;;;8.50;74.20;;;;;;4993540;28;20053;-52
2022/12/07 01:31:29;;;;;;;19.70;14.75;;;8.50;74.20;;;;;;4993187;28;20104;-53
2022/12/07 01:33:58;;;;;;;17.10;14.40;;;8.50;74.00;;;;;;5007520;28;20041;-52
2022/12/07 01:36:29;;;;;;;16.77;13.60;;;8.50;74.00;;;;;;5012958;28;20121;-52
2022/12/07 01:39:02;;;;;;;16.35;14.32;;;8.50;74.00;;;;;;4993577;28;20093;-51
2022/12/07 01:41:34;;;;;;;16.27;14.50;;;8.50;74.00;;;;;;4998106;28;20129;-52
2022/12/07 01:44:19;;;;;;;16.65;14.57;;;8.50;73.90;;;;;;5012334;28;20069;-52
2022/12/07 01:46:57;;;;;;;20.65;14.50;;;8.50;73.90;;;;;;5012538;28;20060;-48
2022/12/07 01:49:34;;;;;;;17.88;13.98;;;8.40;73.70;;;;;;5009325;28;20109;-51
2022/12/07 01:52:15;;;;;;;16.20;13.43;;;8.40;73.70;;;;;;5011507;28;20038;-52
2022/12/07 01:54:45;;;;;;;18.02;14.95;;;8.40;73.70;;;;;;5011355;28;20052;-52
2022/12/07 01:57:13;;;;;;;14.88;12.55;;;8.40;73.70;;;;;;5012686;28;20141;-52
2022/12/07 01:59:41;;;;;;;14.98;13.38;;;8.30;73.70;;;;;;5005882;28;20038;-52
2022/12/07 02:02:18;;;;;;;15.80;13.38;;;8.30;73.80;;;;;;4992798;28;20483;-49
2022/12/07 02:04:46;;;;;;;15.80;13.88;;;8.30;73.90;;;;;;5011961;28;20042;-52
2022/12/07 02:07:16;;;;;;;16.95;13.55;;;8.30;73.90;;;;;;5012769;28;20125;-53
2022/12/07 02:09:46;;;;;;;16.73;12.90;;;8.20;73.80;;;;;;5010392;28;20072;-52
2022/12/07 02:12:15;;;;;;;15.07;12.95;;;8.20;73.70;;;;;;5008667;28;20096;-52
2022/12/07 02:14:42;;;;;;;15.65;12.75;;;8.20;73.70;;;;;;5011863;28;20054;-52
2022/12/07 02:17:31;;;;;;;14.25;12.77;;;8.20;73.80;;;;;;5011924;28;20113;-51
2022/12/07 02:20:13;;;;;;;14.88;12.45;;;8.20;74.20;;;;;;5000405;28;20494;-52
2022/12/07 02:23:15;;;;;;;16.55;12.90;;;8.10;74.20;;;;;;5011897;28;20056;-52
2022/12/07 02:25:57;;;;;;;16.00;12.32;;;8.10;74.40;;;;;;5010717;28;20136;-52
2022/12/07 02:28:37;;;;;;;14.70;12.05;;;8.10;74.20;;;;;;5006428;28;20038;-52
2022/12/07 02:31:18;;;;;;;13.07;11.52;;;8.10;74.40;;;;;;5005165;28;20121;-53
2022/12/07 02:33:53;;;;;;;14.70;12.35;;;8.10;74.50;;;;;;5012157;28;20041;-52
2022/12/07 02:36:29;;;;;;;15.10;12.93;;;8.10;74.50;;;;;;5011377;28;20050;-52
2022/12/07 02:39:00;;;;;;;15.18;12.70;;;8.10;74.60;;;;;;5004661;28;20040;-52
2022/12/07 02:41:35;;;;;;;16.05;12.93;;;8.10;74.50;;;;;;5011616;28;20086;-50
2022/12/07 02:44:08;;;;;;;15.60;12.70;;;8.10;74.60;;;;;;4992401;28;20118;-52
2022/12/07 02:46:44;;;;;;;18.85;13.80;;;8.10;74.50;;;;;;4991746;28;20110;-50
2022/12/07 02:49:11;;;;;;;16.38;13.13;;;8.10;74.60;;;;;;5009063;28;20525;-53
2022/12/07 02:51:46;;;;;;;17.90;12.60;;;8.20;74.70;;;;;;5011566;28;20053;-51
2022/12/07 02:54:21;;;;;;;15.88;13.05;;;8.20;74.80;;;;;;5011347;28;20387;-52
2022/12/07 02:56:54;;;;;;;15.65;13.02;;;8.20;74.70;;;;;;5002163;28;20528;-53
2022/12/07 02:59:42;;;;;;;15.48;12.82;;;8.20;74.80;;;;;;5011536;28;20038;-52
2022/12/07 03:02:42;;;;;;;13.85;12.23;;;8.20;74.60;;;;;;5005415;28;20052;-49
2022/12/07 03:05:42;;;;;;;12.93;11.57;;;8.30;74.70;;;;;;5006320;28;20506;-53
2022/12/07 03:08:37;;;;;;;14.63;11.82;;;8.20;74.70;;;;;;5011209;28;20037;-52
2022/12/07 03:11:08;;;;;;;14.85;12.27;;;8.30;74.50;;;;;;4992209;28;20050;-52
2022/12/07 03:13:56;;;;;;;16.67;12.43;;;8.30;74.30;;;;;;5009982;28;20045;-51
2022/12/07 03:16:25;;;;;;;17.77;12.40;;;8.30;74.50;;;;;;5005446;28;20048;-51
2022/12/07 03:19:01;;;;;;;14.63;12.23;;;8.30;74.20;;;;;;5004067;28;20038;-52
2022/12/07 03:21:35;;;;;;;14.60;12.88;;;8.30;74.30;;;;;;5011137;28;20069;-52
2022/12/07 03:24:11;;;;;;;15.60;13.90;;;8.20;74.30;;;;;;5026670;28;20494;-52
2022/12/07 03:26:44;;;;;;;16.40;13.20;;;8.30;74.30;;;;;;5007217;28;20069;-52
2022/12/07 03:29:20;;;;;;;13.93;11.30;;;8.30;74.30;;;;;;5011209;28;20052;-51
2022/12/07 03:31:55;;;;;;;17.63;12.70;;;8.20;74.20;;;;;;5010858;28;20073;-52
2022/12/07 03:34:33;;;;;;;13.82;11.88;;;8.20;74.30;;;;;;5004197;28;20057;-53
2022/12/07 03:37:12;;;;;;;13.85;12.15;;;8.20;74.40;;;;;;5004596;28;20049;-51
2022/12/07 03:39:49;;;;;;;14.23;12.60;;;8.30;74.50;;;;;;5010720;28;20050;-51
2022/12/07 03:42:15;;;;;;;13.45;11.60;;;8.20;74.40;;;;;;5011016;28;20113;-52
2022/12/07 03:44:43;;;;;;;16.80;12.45;;;8.30;74.40;;;;;;5004248;28;20047;-50
2022/12/07 03:47:17;;;;;;;19.02;13.35;;;8.20;74.20;;;;;;5010855;28;20397;-51
2022/12/07 03:49:50;;;;;;;15.75;12.50;;;8.20;74.00;;;;;;5010848;28;20061;-47
2022/12/07 03:52:45;;;;;;;13.32;11.45;;;8.20;73.90;;;;;;5008600;28;20072;-52
2022/12/07 03:55:22;;;;;;;13.55;10.98;;;8.20;73.90;;;;;;5008437;28;20080;-52
2022/12/07 03:57:52;;;;;;;13.60;11.52;;;8.20;74.00;;;;;;5010474;28;20494;-52
2022/12/07 04:00:19;;;;;;;12.30;11.00;;;8.20;73.80;;;;;;5010827;28;20506;-50
2022/12/07 04:02:47;;;;;;;14.55;11.45;;;8.10;73.60;;;;;;5005498;28;20088;-52
2022/12/07 04:05:13;;;;;;;13.15;11.48;;;8.10;73.50;;;;;;5010526;28;20062;-52
2022/12/07 04:07:43;;;;;;;15.57;12.85;;;8.00;73.40;;;;;;5010290;28;20121;-51
2022/12/07 04:10:13;;;;;;;19.90;12.55;;;8.00;73.50;;;;;;5007786;28;20092;-52
2022/12/07 04:12:40;;;;;;;14.50;12.10;;;7.90;73.50;;;;;;5006432;28;20042;-50
2022/12/07 04:15:10;;;;;;;17.15;12.30;;;7.90;73.60;;;;;;5010096;28;20068;-52
2022/12/07 04:17:39;;;;;;;16.77;12.05;;;7.90;73.70;;;;;;5011042;28;20046;-52
2022/12/07 04:20:07;;;;;;;14.40;12.02;;;7.90;73.70;;;;;;5012432;28;20043;-52
2022/12/07 04:22:33;;;;;;;13.05;10.82;;;7.80;73.90;;;;;;5015704;28;20061;-52
2022/12/07 04:25:00;;;;;;;14.77;11.73;;;7.80;74.00;;;;;;5013935;28;20041;-51
2022/12/07 04:27:27;;;;;;;15.68;13.02;;;7.80;74.20;;;;;;5014502;28;20070;-52
2022/12/07 04:29:55;;;;;;;15.50;12.32;;;7.80;74.50;;;;;;4994228;28;20058;-52
2022/12/07 04:32:22;;;;;;;14.75;12.63;;;7.80;74.80;;;;;;5010247;28;20625;-51
2022/12/07 04:34:51;;;;;;;14.90;11.73;;;7.80;74.80;;;;;;5013466;28;20045;-52
2022/12/07 04:37:22;;;;;;;14.00;11.07;;;7.80;74.80;;;;;;5014278;28;20081;-52
2022/12/07 04:39:49;;;;;;;12.88;10.48;;;7.90;74.80;;;;;;5010440;28;20042;-51
2022/12/07 04:42:16;;;;;;;15.73;11.70;;;7.90;74.80;;;;;;5014115;28;20033;-52
2022/12/07 04:44:42;;;;;;;12.52;11.23;;;7.90;74.80;;;;;;5013754;28;20042;-51
2022/12/07 04:47:09;;;;;;;13.93;11.30;;;7.90;74.80;;;;;;5011600;28;20439;-52
2022/12/07 04:49:36;;;;;;;12.05;9.73;;;7.90;74.80;;;;;;5004460;28;20046;-48
2022/12/07 04:52:03;;;;;;;11.57;10.25;;;8.00;74.80;;;;;;5011785;28;20536;-51
2022/12/07 04:54:29;;;;;;;14.07;10.25;;;8.00;74.70;;;;;;5011756;28;20066;-52
2022/12/07 04:56:56;;;;;;;12.35;10.35;;;8.00;74.50;;;;;;5013119;28;20042;-52
2022/12/07 04:59:23;;;;;;;12.35;10.05;;;8.00;74.50;;;;;;5010636;28;20107;-52
2022/12/07 05:01:49;;;;;;;12.70;9.48;;;8.10;74.40;;;;;;5009962;28;20149;-52
2022/12/07 05:04:17;;;;;;;12.43;9.32;;;8.00;74.20;;;;;;5013141;28;20038;-52
2022/12/07 05:06:44;;;;;;;13.90;10.38;;;8.00;74.20;;;;;;5012528;28;20120;-52
2022/12/07 05:09:11;;;;;;;13.18;9.85;;;8.00;74.10;;;;;;5010656;28;20411;-51
2022/12/07 05:11:38;;;;;;;9.82;8.93;;;8.00;74.20;;;;;;4993179;28;20054;-52
2022/12/07 05:14:16;;;;;;;12.00;9.30;;;8.00;74.20;;;;;;5012623;28;20080;-51
2022/12/07 05:16:45;;;;;;;11.68;9.50;;;8.00;74.20;;;;;;5011813;28;20073;-49
2022/12/07 05:19:12;;;;;;;11.20;9.27;;;8.00;74.20;;;;;;5010537;28;20583;-51
2022/12/07 05:21:39;;;;;;;12.32;9.85;;;8.00;74.30;;;;;;5010804;28;20056;-51
2022/12/07 05:24:09;;;;;;;12.05;9.40;;;8.00;74.30;;;;;;5017861;28;20044;-52
2022/12/07 05:26:36;;;;;;;10.75;8.77;;;8.00;74.30;;;;;;5008862;28;20057;-50
2022/12/07 05:29:06;;;;;;;10.40;8.70;;;8.00;74.40;;;;;;5011966;28;20116;-51
2022/12/07 05:31:34;;;;;;;11.35;9.02;;;8.00;74.40;;;;;;5012702;28;20045;-50
2022/12/07 05:34:06;;;;;;;10.32;9.35;;;8.00;74.40;;;;;;5013392;28;20100;-52
2022/12/07 05:36:33;;;;;;;10.65;8.98;;;8.00;74.30;;;;;;5010288;28;20132;-51
2022/12/07 05:39:02;;;;;;;9.68;8.30;;;8.00;74.30;;;;;;5011874;28;20042;-49
2022/12/07 05:44:14;;;;;;;8.40;7.57;;;8.00;74.20;;;;;;5007250;28;20042;-52
2022/12/07 05:46:41;;;;;;;8.70;7.70;;;8.10;74.20;;;;;;5003087;28;20510;-50
2022/12/07 05:49:10;;;;;;;10.90;8.20;;;8.10;74.80;;;;;;5009696;28;20046;-53
2022/12/07 05:51:38;;;;;;;10.15;8.30;;;8.10;74.80;;;;;;5005182;28;20119;-48
2022/12/07 05:54:07;;;;;;;13.52;7.65;;;8.10;74.70;;;;;;5006962;28;20120;-52
2022/12/07 05:56:37;;;;;;;8.70;7.80;;;8.10;74.00;;;;;;5006843;28;20052;-51
2022/12/07 05:59:22;;;;;;;9.60;7.85;;;8.10;74.00;;;;;;5010496;28;20044;-51
2022/12/07 06:01:56;;;;;;;8.98;6.85;;;8.00;73.90;;;;;;5008373;28;20293;-52
2022/12/07 06:04:25;;;;;;;8.38;7.03;;;8.10;74.00;;;;;;5003168;28;20116;-51
2022/12/07 06:06:52;;;;;;;8.93;7.57;;;8.00;73.90;;;;;;5009762;28;20046;-50
2022/12/07 06:09:20;;;;;;;9.75;7.68;;;8.00;73.90;;;;;;5010290;28;20064;-52
2022/12/07 06:14:35;;;;;;;9.73;7.47;;;8.00;74.10;;;;;;5007610;28;20598;-51
2022/12/07 06:17:05;;;;;;;9.27;7.40;;;8.00;74.10;;;;;;5009906;28;20042;-52
2022/12/07 06:19:33;;;;;;;9.27;7.18;;;8.00;74.20;;;;;;5009479;28;20053;-52
2022/12/07 06:21:59;;;;;;;9.27;6.75;;;8.00;74.20;;;;;;5006219;28;20421;-51
2022/12/07 06:24:26;;;;;;;8.63;6.53;;;7.90;74.20;;;;;;5005268;28;20076;-52
2022/12/07 06:26:53;;;;;;;9.63;7.10;;;8.00;74.20;;;;;;5009827;28;20402;-52
2022/12/07 06:29:22;;;;;;;8.40;6.95;;;8.10;74.20;;;;;;5010122;28;20064;-52
2022/12/07 06:31:51;;;;;;;9.50;7.38;;;7.90;74.00;;;;;;5007116;28;20099;-52
2022/12/07 06:34:22;;;;;;;10.15;7.35;;;7.90;73.90;;;;;;5008711;28;20798;-50
2022/12/07 06:36:55;;;;;;;7.90;6.55;;;7.90;73.90;;;;;;5001435;28;20144;-51
2022/12/07 06:39:25;;;;;;;8.80;6.22;;;7.80;74.40;;;;;;4992542;28;20125;-52
2022/12/07 06:41:54;;;;;;;9.90;6.95;;;7.80;73.70;;;;;;5005429;28;20048;-52
2022/12/07 06:44:21;;;;;;;7.85;6.63;;;7.80;73.60;;;;;;5009711;28;20038;-51
2022/12/07 06:46:49;;;;;;;9.10;6.35;;;7.80;73.60;;;;;;5009253;28;20525;-52
2022/12/07 06:49:16;;;;;;;10.15;7.57;;;7.70;73.50;;;;;;5009905;28;20060;-52
2022/12/07 06:51:43;;;;;;;10.30;7.55;;;7.70;73.60;;;;;;5011443;28;20049;-52
2022/12/07 06:54:11;;;;;;;9.90;7.47;;;7.60;74.20;;;;;;5010547;28;20506;-50
2022/12/07 06:56:44;;;;;;;9.40;6.95;;;7.60;73.70;;;;;;5007751;28;20046;-51
2022/12/07 06:59:11;;;;;;;10.30;8.30;;;7.50;73.70;;;;;;5005513;28;20497;-52
2022/12/07 07:01:38;;;;;;;9.90;8.23;;;7.50;73.70;;;;;;5003971;28;20080;-52
2022/12/07 07:04:05;;;;;;;8.88;6.93;;;7.40;73.80;;;;;;5009768;28;20034;-52
2022/12/07 07:06:41;;;;;;;10.23;8.18;;;7.40;74.00;;;;;;5009200;28;20048;-52
2022/12/07 07:09:10;;;;;;;9.63;7.80;;;7.30;74.20;;;;;;5006906;28;20133;-52
2022/12/07 07:11:36;;;;;;;10.75;8.10;;;7.30;74.40;;;;;;5009878;28;20426;-52
2022/12/07 07:14:05;;;;;;;10.40;8.18;;;7.30;74.60;;;;;;5011789;28;20426;-52
2022/12/07 07:16:32;;;;;;;9.30;8.40;;;7.30;74.70;;;;;;5008372;28;20038;-52
2022/12/07 07:19:02;;;;;;;12.57;8.45;;;7.30;74.90;;;;;;5005950;28;20056;-51
2022/12/07 07:21:33;;;;;;;10.45;8.60;;;7.40;75.00;;;;;;5005883;28;20063;-50
2022/12/07 07:24:01;;;;;;;10.02;8.93;;;7.40;75.00;;;;;;5011073;28;20045;-51
2022/12/07 07:26:28;;;;;;;14.75;8.90;;;7.40;74.90;;;;;;5010766;28;20774;-49
2022/12/07 07:28:57;;;;;;;11.88;8.68;;;7.30;74.80;;;;;;4991682;28;20042;-52
2022/12/07 07:31:26;;;;;;;10.95;8.65;;;7.40;74.70;;;;;;5009949;28;20036;-52
2022/12/07 07:33:53;;;;;;;12.15;8.70;;;7.40;74.70;;;;;;5007198;28;20502;-51
2022/12/07 07:36:21;;;;;;;9.90;8.90;;;7.30;74.60;;;;;;5009091;28;20062;-50
2022/12/07 07:38:48;;;;;;;11.27;9.65;;;7.30;74.60;;;;;;5002031;28;20048;-52
2022/12/07 07:41:15;;;;;;;13.52;10.93;;;7.30;74.60;;;;;;5009612;28;20038;-50
2022/12/07 07:43:41;;;;;;;12.60;11.05;;;7.30;74.50;;;;;;5006297;28;20629;-51
2022/12/07 07:46:08;;;;;;;13.20;11.45;;;7.30;74.50;;;;;;5009719;28;20040;-51
2022/12/07 07:48:35;;;;;;;18.30;13.55;;;7.20;74.50;;;;;;5009596;28;20457;-51
2022/12/07 07:51:08;;;;;;;16.90;13.32;;;7.20;74.60;;;;;;4998163;28;20417;-51
2022/12/07 07:53:36;;;;;;;17.48;13.68;;;7.20;74.70;;;;;;5005819;28;20060;-51
2022/12/07 07:56:06;;;;;;;18.23;14.80;;;7.20;74.70;;;;;;4985315;28;20058;-52
2022/12/07 07:58:32;;;;;;;19.77;14.43;;;7.10;74.80;;;;;;5009372;28;20685;-51
2022/12/07 08:01:08;;;;;;;23.00;15.65;;;7.20;74.90;;;;;;5009644;28;20041;-52
2022/12/07 08:03:35;;;;;;;19.60;15.00;;;7.20;75.20;;;;;;5009763;28;20057;-52
2022/12/07 08:06:03;;;;;;;20.30;15.35;;;7.20;75.10;;;;;;5007103;28;20073;-52
2022/12/07 08:08:36;;;;;;;19.48;15.23;;;7.10;75.10;;;;;;5007780;28;20093;-52
2022/12/07 08:11:09;;;;;;;18.38;15.73;;;7.10;75.20;;;;;;5009706;28;20178;-52
2022/12/07 08:13:36;;;;;;;18.38;14.60;;;7.20;75.40;;;;;;4991988;28;20133;-52
2022/12/07 08:16:08;;;;;;;26.10;15.82;;;7.20;75.50;;;;;;5007035;28;20045;-51
2022/12/07 08:18:36;;;;;;;19.15;14.38;;;7.20;75.50;;;;;;5009200;28;20046;-53
2022/12/07 08:21:03;;;;;;;20.75;14.40;;;7.20;75.40;;;;;;4986102;28;20052;-52
2022/12/07 08:23:33;;;;;;;18.63;13.35;;;7.20;75.20;;;;;;5011194;28;20041;-51
2022/12/07 08:26:08;;;;;;;17.17;14.10;;;7.20;75.20;;;;;;5009684;28;20043;-51
2022/12/07 08:28:35;;;;;;;19.20;14.77;;;7.20;75.10;;;;;;5004568;28;20069;-52
2022/12/07 08:31:07;;;;;;;18.27;14.48;;;7.20;75.10;;;;;;5009433;28;20038;-52
2022/12/07 08:33:35;;;;;;;15.30;12.88;;;7.20;75.10;;;;;;5007360;28;20101;-52
2022/12/07 08:36:06;;;;;;;17.63;13.93;;;7.20;75.10;;;;;;5006983;28;20044;-51
2022/12/07 08:38:37;;;;;;;18.25;14.48;;;7.20;75.30;;;;;;5009728;28;20461;-52
2022/12/07 08:41:05;;;;;;;20.63;14.32;;;7.20;76.00;;;;;;5009588;28;20038;-50
2022/12/07 08:43:34;;;;;;;15.95;12.90;;;7.20;75.40;;;;;;5004792;28;20049;-51
2022/12/07 08:46:25;;;;;;;18.38;12.90;;;7.20;75.60;;;;;;5009221;28;20052;-51
2022/12/07 08:49:01;;;;;;;14.50;12.23;;;7.20;76.00;;;;;;5009501;28;20125;-49
2022/12/07 08:51:28;;;;;;;14.15;12.68;;;7.30;76.00;;;;;;5005045;28;20061;-52
2022/12/07 08:54:00;;;;;;;15.95;13.25;;;7.30;76.00;;;;;;5007864;28;20060;-49
2022/12/07 08:56:27;;;;;;;17.55;13.90;;;7.30;76.10;;;;;;5009455;28;20569;-51
2022/12/07 08:58:54;;;;;;;16.63;13.60;;;7.40;76.00;;;;;;5009633;28;20069;-50
2022/12/07 09:01:21;;;;;;;16.02;13.05;;;7.40;75.90;;;;;;5004878;28;20044;-50
2022/12/07 09:03:47;;;;;;;14.75;12.45;;;7.50;75.80;;;;;;5009131;28;20066;-51
2022/12/07 09:06:14;;;;;;;15.32;11.93;;;7.50;75.60;;;;;;5012843;28;20046;-51
2022/12/07 09:08:46;;;;;;;17.98;12.38;;;7.50;75.60;;;;;;5012862;28;20041;-52
2022/12/07 09:11:14;;;;;;;16.25;12.50;;;7.60;75.70;;;;;;5006858;28;20042;-48
2022/12/07 09:13:41;;;;;;;14.82;12.35;;;7.60;75.80;;;;;;5010560;28;20738;-50
2022/12/07 09:16:07;;;;;;;18.33;12.80;;;7.60;76.00;;;;;;5012399;28;20044;-52
2022/12/07 09:18:34;;;;;;;16.73;14.50;;;7.70;76.20;;;;;;5012331;28;20130;-51
2022/12/07 09:21:01;;;;;;;20.33;15.02;;;7.70;76.20;;;;;;5005584;28;20038;-52
2022/12/07 09:23:29;;;;;;;19.50;15.32;;;7.80;76.20;;;;;;5017004;28;20095;-51
2022/12/07 09:26:05;;;;;;;22.50;14.50;;;7.90;76.10;;;;;;4992707;28;20042;-51
2022/12/07 09:28:39;;;;;;;17.70;13.82;;;7.90;76.10;;;;;;4994016;28;20050;-51
2022/12/07 09:31:06;;;;;;;19.20;13.68;;;8.00;76.00;;;;;;5003152;28;20100;-52
2022/12/07 09:33:59;;;;;;;20.15;13.35;;;8.10;75.90;;;;;;5011842;28;20525;-50
2022/12/07 09:36:28;;;;;;;18.33;13.40;;;8.10;75.90;;;;;;5012486;28;20053;-51
2022/12/07 09:38:55;;;;;;;18.75;13.40;;;8.10;75.60;;;;;;5009768;28;20049;-50
2022/12/07 09:41:23;;;;;;;16.75;13.25;;;8.20;75.40;;;;;;5008945;28;20153;-51
2022/12/07 09:44:02;;;;;;;21.88;14.02;;;8.20;75.20;;;;;;5013070;28;20046;-50
2022/12/07 09:46:34;;;;;;;15.02;12.23;;;8.30;75.00;;;;;;5012113;28;20120;-52
2022/12/07 09:49:01;;;;;;;18.95;14.48;;;8.30;74.60;;;;;;5004812;28;20034;-49
2022/12/07 09:51:31;;;;;;;21.63;13.90;;;8.30;74.40;;;;;;5010294;28;20068;-52
2022/12/07 09:53:59;;;;;;;20.23;15.52;;;8.20;74.30;;;;;;5004811;28;20044;-48
2022/12/07 09:56:26;;;;;;;22.23;14.60;;;8.20;74.20;;;;;;5011914;28;20121;-51
2022/12/07 09:59:01;;;;;;;19.42;14.77;;;8.20;74.40;;;;;;5005230;28;20125;-52
2022/12/07 10:01:31;;;;;;;17.27;14.30;;;8.20;74.60;;;;;;5010092;28;20418;-52
2022/12/07 10:04:11;;;;;;;19.40;15.25;;;8.20;74.80;;;;;;4993107;28;20038;-51
2022/12/07 10:06:41;;;;;;;;;;;8.10;75.00;;;;;;4993952;28;20500;-51
2022/12/07 10:09:14;;;;;;;18.00;14.05;;;8.20;75.40;;;;;;5007975;28;19921;-52
2022/12/07 10:12:04;;;;;;;23.08;15.88;;;8.20;75.00;;;;;;5011516;28;20073;-54
2022/12/07 10:14:36;;;;;;;19.50;15.65;;;8.20;75.50;;;;;;5011354;28;20399;-49
2022/12/07 10:17:47;;;;;;;16.83;13.98;;;8.30;75.70;;;;;;5002226;28;20069;-51
2022/12/07 10:20:25;;;;;;;21.50;14.95;;;8.40;76.30;;;;;;5001809;28;20061;-51
2022/12/07 10:23:04;;;;;;;19.00;14.95;;;8.50;76.40;;;;;;5015607;28;20038;-51
2022/12/07 10:25:40;;;;;;;18.55;14.63;;;8.60;76.60;;;;;;5010688;28;20046;-52
2022/12/07 10:28:07;;;;;;;16.77;12.82;;;8.70;76.30;;;;;;5006904;28;20096;-52
2022/12/07 10:30:45;;;;;;;17.23;13.20;;;8.80;76.10;;;;;;5010995;28;20057;-49
2022/12/07 10:33:49;;;;;;;13.40;10.80;;;9.00;75.60;;;;;;5010700;28;20049;-52
2022/12/07 10:36:20;;;;;;;12.68;10.65;;;9.00;75.20;;;;;;5007776;28;20044;-50
2022/12/07 10:38:52;;;;;;;15.52;9.98;;;9.10;74.80;;;;;;5001341;28;20054;-47
2022/12/07 10:41:25;;;;;;;11.75;8.27;;;9.20;74.70;;;;;;5010598;28;20117;-52
2022/12/07 10:43:54;;;;;;;12.82;8.15;;;9.20;74.30;;;;;;5011637;28;20046;-51
2022/12/07 10:46:48;;;;;;;10.57;7.80;;;9.30;73.80;;;;;;4999936;28;20439;-51
2022/12/07 10:49:50;;;;;;;14.55;8.02;;;9.30;73.20;;;;;;5001857;28;20044;-52
2022/12/07 10:52:41;;;;;;;11.40;8.60;;;9.30;72.90;;;;;;5010110;28;20034;-51
2022/12/07 10:55:28;;;;;;;9.20;7.18;;;9.40;73.10;;;;;;4996089;28;20041;-51
2022/12/07 10:58:24;;;;;;;10.88;8.93;;;9.40;73.10;;;;;;4993577;28;20034;-50
2022/12/07 11:00:54;;;;;;;9.38;7.93;;;9.40;73.00;;;;;;5009070;28;20038;-51
2022/12/07 11:04:13;;;;;;;10.05;7.78;;;9.40;72.90;;;;;;5007330;28;20050;-51
2022/12/07 11:07:10;;;;;;;9.70;7.35;;;9.50;72.60;;;;;;4990469;28;20069;-52
2022/12/07 11:09:59;;;;;;;12.23;8.30;;;9.50;72.70;;;;;;5008115;28;20124;-51
2022/12/07 11:12:59;;;;;;;9.13;7.57;;;9.50;72.40;;;;;;5010495;28;20172;-52
2022/12/07 11:16:00;;;;;;;12.98;8.15;;;9.50;72.30;;;;;;5004837;28;20038;-50
2022/12/07 11:19:02;;;;;;;10.07;7.82;;;9.60;72.00;;;;;;5011445;28;20084;-51
2022/12/07 11:21:53;;;;;;;11.50;7.43;;;9.50;71.80;;;;;;5007202;28;20489;-52
2022/12/07 11:24:49;;;;;;;10.50;7.35;;;9.60;72.00;;;;;;5005100;28;20041;-52
2022/12/07 11:27:57;;;;;;;9.85;7.25;;;9.60;71.90;;;;;;5002922;28;20578;-52
2022/12/07 11:30:38;;;;;;;11.23;7.03;;;9.60;72.10;;;;;;4910968;29;20066;-50
2022/12/07 11:33:21;;;;;;;11.98;7.20;;;9.60;72.30;;;;;;5001535;28;20085;-52
2022/12/07 11:36:03;;;;;;;12.30;7.45;;;9.60;72.10;;;;;;5008108;28;20704;-51
2022/12/07 11:38:50;;;;;;;10.13;7.65;;;9.60;72.30;;;;;;5010461;28;20409;-52
2022/12/07 11:41:23;;;;;;;11.13;6.25;;;9.70;72.80;;;;;;5004743;28;20038;-51
2022/12/07 11:44:07;;;;;;;8.30;6.45;;;9.70;72.10;;;;;;5009970;28;20041;-52
2022/12/07 11:46:54;;;;;;;9.43;7.03;;;9.70;72.00;;;;;;5010011;28;20092;-52
2022/12/07 11:49:58;;;;;;;9.93;7.13;;;9.80;72.00;;;;;;5008915;28;20583;-51
2022/12/07 11:52:36;;;;;;;12.65;7.03;;;9.80;71.60;;;;;;5008080;28;20038;-51
2022/12/07 11:55:07;;;;;;;10.75;6.97;;;9.80;71.70;;;;;;5003308;28;20056;-51
2022/12/07 11:57:42;;;;;;;11.18;7.03;;;9.80;71.70;;;;;;5009982;28;20038;-52
2022/12/07 12:00:17;;;;;;;10.45;6.60;;;9.80;71.50;;;;;;5002195;28;20046;-52
2022/12/07 12:02:52;;;;;;;9.70;6.75;;;9.80;71.20;;;;;;5010634;28;20510;-52
2022/12/07 12:05:21;;;;;;;13.13;7.15;;;9.80;71.00;;;;;;5009421;28;20034;-52
2022/12/07 12:07:59;;;;;;;10.23;6.30;;;9.70;70.90;;;;;;5009966;28;20034;-53
2022/12/07 12:11:00;;;;;;;9.20;5.97;;;9.70;71.20;;;;;;5005170;28;20060;-53
2022/12/07 12:14:04;;;;;;;7.75;6.03;;;9.70;71.20;;;;;;5005924;28;20068;-53
2022/12/07 12:17:11;;;;;;;8.68;4.93;;;9.70;71.30;;;;;;5006192;28;20060;-53
2022/12/07 12:19:58;;;;;;;9.85;5.55;;;9.70;71.30;;;;;;5001929;28;20049;-51
2022/12/07 12:22:41;;;;;;;8.02;5.00;;;9.70;71.40;;;;;;5013713;28;20044;-52
2022/12/07 12:25:28;;;;;;;9.90;5.00;;;9.60;71.20;;;;;;5002661;28;20046;-51
2022/12/07 12:27:58;;;;;;;8.60;4.50;;;9.70;71.20;;;;;;5009499;28;20073;-53
2022/12/07 12:30:37;;;;;;;5.80;5.15;;;9.70;71.50;;;;;;5004336;28;20053;-49
2022/12/07 12:33:22;;;;;;;6.15;4.18;;;9.70;71.50;;;;;;5003802;28;20044;-52
2022/12/07 12:36:17;;;;;;;8.75;4.88;;;9.80;71.50;;;;;;5008879;28;20042;-52
2022/12/07 12:39:06;;;;;;;6.93;4.43;;;9.80;72.00;;;;;;5007451;28;20068;-48
2022/12/07 12:41:36;;;;;;;8.55;4.85;;;9.90;71.60;;;;;;5010063;28;20058;-52
2022/12/07 12:44:29;;;;;;;7.05;4.50;;;10.00;72.10;;;;;;4994275;28;20498;-51
2022/12/07 12:46:57;;;;;;;;;;;10.10;71.80;;;;;;4975381;28;20132;-52
2022/12/07 12:49:56;;;;;;;6.50;3.95;;;10.30;72.00;;;;;;5012830;28;19972;-52
2022/12/07 12:52:29;;;;;;;6.78;4.15;;;10.30;71.50;;;;;;4997947;28;20069;-53
2022/12/07 12:55:11;;;;;;;9.00;4.85;;;10.50;71.10;;;;;;5013158;28;20034;-52
2022/12/07 12:57:38;;;;;;;6.82;4.55;;;10.50;70.90;;;;;;5008285;28;20042;-52
2022/12/07 13:00:23;;;;;;;9.35;4.97;;;10.60;70.90;;;;;;5012655;28;20093;-52
2022/12/07 13:02:53;;;;;;;8.05;4.28;;;10.70;70.00;;;;;;5008126;28;20046;-50
2022/12/07 13:05:28;;;;;;;10.23;5.07;;;10.70;70.10;;;;;;5009886;28;20056;-51
2022/12/07 13:08:24;;;;;;;8.88;4.28;;;10.80;69.70;;;;;;5012733;28;20562;-51
2022/12/07 13:11:24;;;;;;;7.32;3.60;;;10.80;69.00;;;;;;5010616;28;20046;-52
2022/12/07 13:13:51;;;;;;;8.73;4.07;;;10.80;68.60;;;;;;5011468;28;20513;-51
2022/12/07 13:16:23;;;;;;;7.93;3.63;;;10.80;69.10;;;;;;5010372;28;20041;-51
2022/12/07 13:18:50;;;;;;;5.95;3.85;;;10.80;68.80;;;;;;5011733;28;20049;-52
2022/12/07 13:21:17;;;;;;;8.40;3.50;;;10.80;68.90;;;;;;5008220;28;20053;-52
2022/12/07 13:23:43;;;;;;;7.47;3.92;;;10.80;68.60;;;;;;5012033;28;20096;-52